Mentor, OH (44060)

12:40 PM EST on February 11, 2016 (GMT -0500)
Living Homes | | Change Station
CLOSE
Current Station
Personal Weather Station
Location: Mentor, OH
Elevation: 623 ft
Nearby Weather Stations
Active Advisory: Lake Effect Snow Advisory Active Notice: Local Storm Report

Elev 623 ft 41.70 °N, 81.35 °W | Updated 11 seconds ago

Overcast
Overcast
19.0 °F
Feels Like 13 °F
N
4.3
Wind Variable Wind from WSW
Gusts 7.4 mph

Today
High -- | Low -- °F
--% Chance of Precip.
Yesterday
High -- | Low -- °F
Precip. -- in
Pressure 30.17 in
Visibility 7.0 miles
Clouds Mostly Cloudy 1500 ft
Overcast 3500 ft
Windchill 13 °F
Dew Point -2 °F
Humidity 38%
Rainfall 0.00 in
Snow Depth Not available.
7:26 AM 5:53 PM
Waxing Crescent, 13% visible
METAR KCGF 111645Z 32010G18KT 7SM BKN015 OVC035 M08/M15 A3017
Pressure 30.17 in
Visibility 7.0 miles
Clouds Mostly Cloudy 1500 ft
Overcast 3500 ft
Windchill 13 °F
Dew Point -2 °F
Humidity 38%
Rainfall 0.00 in
Snow Depth Not available.
7:26 AM 5:53 PM
Waxing Crescent, 13% visible
METAR KCGF 111645Z 32010G18KT 7SM BKN015 OVC035 M08/M15 A3017

10-Day Weather Forecast

Almanac

Astronomy

Feb. 11, 2016 Rise Set
Actual Time
Civil Twilight
Nautical Twilight
Astronomical Twilight
Moon
Length of Visible Light
Length of Day
Tomorrow will be .
, % of the Moon is Illuminated

Today's Extremes

State Highs State Lows

Community

WunderPhotos

Upload Photos

1,892,109 photos uploaded!

WunderBlog® & News

Nearby

Air Quality

  Air Quality AQ Index Pollutant
Not available.

Snow Depth

Station Depth Elevation

Earthquake Activity

City Distance Mag. Time & Date
Minimum magnitude displayed is 2.5.

Coastal Water Temperatures

Place Temperature

Stations

Nearby Weather Stations

Station Location Temp. Windchill Dew Point Humidity Wind Precip. Elev Updated Type
                   

Watches & Warnings

Lake Effect Snow Advisory
Issued: 10:04 AM EST Feb. 11, 2016 – National Weather Service

... Lake effect Snow Advisory remains in effect until 4 PM EST
this afternoon...

* accumulations... accumulations during the daylight hours will
range from to 1 to locally 4 inches of snow. The higher
amounts are expected in northwest Pennsylvania.

* Timing... snow showers will continue today. The snow showers will
begin to diminish around midday and will end from west to east
this evening.

* Impacts... snow covered roads and reduced visibility during
heavier snow showers and squalls.

* Winds... northwest 15 to 25 mph with gusts up to 35 mph.

* Temperatures... 12 to 19.

Precautionary/preparedness actions...

In lake effect snow the weather can vary from locally heavy snow
in narrow bands to dry weather just a few miles away. If you will
be traveling across the region be prepared for rapid changes in
Road and visibility conditions. Stay tuned to NOAA Weather Radio
for further details or updates.